createdAt,value
2019-02-05T00:00:35.511Z,0.10
2019-02-05T00:05:41.343Z,0.10
2019-02-05T00:10:47.928Z,0.00
2019-02-05T00:15:53.759Z,0.00
2019-02-05T00:20:59.930Z,0.00
2019-02-05T00:26:06.608Z,0.00
2019-02-05T00:31:11.660Z,0.00
2019-02-05T00:36:17.184Z,0.00
2019-02-05T00:41:22.671Z,0.00
2019-02-05T00:46:28.702Z,-0.10
2019-02-05T00:51:34.319Z,0.00
2019-02-05T00:56:39.803Z,0.00
2019-02-05T01:01:46.003Z,0.00
2019-02-05T01:06:52.035Z,0.10
2019-02-05T01:11:57.873Z,0.10
2019-02-05T01:17:04.083Z,0.10
2019-02-05T01:22:09.955Z,0.20
2019-02-05T01:27:16.179Z,0.30
2019-02-05T01:32:21.663Z,0.20
2019-02-05T01:37:27.164Z,0.30
2019-02-05T01:42:33.007Z,0.30
2019-02-05T01:47:39.084Z,0.30
2019-02-05T01:52:44.565Z,0.40
2019-02-05T01:57:50.167Z,0.30
2019-02-05T02:02:55.711Z,0.30
2019-02-05T02:08:01.848Z,0.30
2019-02-05T02:13:07.317Z,0.30
2019-02-05T02:18:12.788Z,0.30
2019-02-05T02:23:18.631Z,0.30
2019-02-05T02:28:24.514Z,0.30
2019-02-05T02:33:30.340Z,0.30
2019-02-05T02:38:36.166Z,0.30
2019-02-05T02:43:41.663Z,0.40
2019-02-05T02:48:47.503Z,0.40
2019-02-05T02:53:53.636Z,0.50
2019-02-05T02:58:59.105Z,0.50
2019-02-05T03:04:04.994Z,0.40
2019-02-05T03:09:10.951Z,0.50
2019-02-05T03:14:16.428Z,0.50
2019-02-05T03:19:21.980Z,0.50
2019-02-05T03:24:27.860Z,0.60
2019-02-05T03:29:33.335Z,0.60
2019-02-05T03:34:39.138Z,0.70
2019-02-05T03:39:45.288Z,0.70
2019-02-05T03:44:51.339Z,0.60
2019-02-05T03:49:56.903Z,0.70
2019-02-05T03:55:16.011Z,0.70
2019-02-05T04:00:42.668Z,0.70
2019-02-05T04:06:08.451Z,0.70
2019-02-05T04:11:43.012Z,0.70
2019-02-05T04:17:40.812Z,0.70
2019-02-05T04:23:05.710Z,0.80
2019-02-05T04:28:42.331Z,0.80
2019-02-05T04:34:06.275Z,0.80
2019-02-05T04:39:43.584Z,0.80
2019-02-05T04:46:04.493Z,0.80
2019-02-05T04:52:29.737Z,0.80
2019-02-05T04:57:57.446Z,0.90
2019-02-05T05:03:11.130Z,0.80
2019-02-05T05:08:34.501Z,0.80
2019-02-05T05:13:40.679Z,0.80
2019-02-05T05:18:46.142Z,0.90
2019-02-05T05:23:51.763Z,0.80
2019-02-05T05:28:57.632Z,0.50
2019-02-05T05:34:03.445Z,0.30
2019-02-05T05:39:09.807Z,0.20
2019-02-05T05:44:15.293Z,0.10
2019-02-05T05:49:21.097Z,0.10
2019-02-05T05:54:26.591Z,0.20
2019-02-05T05:59:32.046Z,0.20
2019-02-05T06:04:38.222Z,0.20
2019-02-05T06:09:43.984Z,0.20
2019-02-05T06:14:49.554Z,0.30
2019-02-05T06:19:55.387Z,0.30
2019-02-05T06:25:01.290Z,0.40
2019-02-05T06:30:08.503Z,0.40
2019-02-05T06:35:13.994Z,0.40
2019-02-05T06:40:19.495Z,0.50
2019-02-05T06:45:24.955Z,0.50
2019-02-05T06:50:30.766Z,0.50
2019-02-05T06:55:36.656Z,0.60
2019-02-05T07:00:42.835Z,0.60
2019-02-05T07:05:48.745Z,0.60
2019-02-05T07:10:54.483Z,0.70
2019-02-05T07:16:00.354Z,0.70
2019-02-05T07:21:06.584Z,0.80
2019-02-05T07:26:12.079Z,0.80
2019-02-05T07:31:17.996Z,0.80
2019-02-05T07:36:24.103Z,0.90
2019-02-05T07:41:29.555Z,1.00
2019-02-05T07:46:35.643Z,1.00
2019-02-05T07:51:41.135Z,1.10
2019-02-05T07:56:46.920Z,1.20
2019-02-05T08:01:52.936Z,1.20
2019-02-05T08:06:58.451Z,1.20
2019-02-05T08:12:04.086Z,1.30
2019-02-05T08:17:10.415Z,1.40
2019-02-05T08:22:16.264Z,1.30
2019-02-05T08:27:22.126Z,1.50
2019-02-05T08:32:28.472Z,1.60
2019-02-05T08:37:34.012Z,1.60
2019-02-05T08:42:39.482Z,1.60
2019-02-05T08:47:45.303Z,1.70
2019-02-05T08:52:50.996Z,1.80
2019-02-05T08:58:03.147Z,1.80
2019-02-05T09:03:10.428Z,1.90
2019-02-05T09:08:15.947Z,2.00
2019-02-05T09:13:22.543Z,2.10
2019-02-05T09:18:28.055Z,2.00
2019-02-05T09:23:33.679Z,2.10
2019-02-05T09:28:40.184Z,2.10
2019-02-05T09:33:46.437Z,2.10
2019-02-05T09:38:52.622Z,2.20
2019-02-05T09:43:58.472Z,2.30
2019-02-05T09:49:04.723Z,2.40
2019-02-05T09:54:10.614Z,2.40
2019-02-05T09:59:16.574Z,2.40
2019-02-05T10:04:22.430Z,2.40
2019-02-05T10:09:27.896Z,2.50
2019-02-05T10:14:34.203Z,2.60
2019-02-05T10:19:39.728Z,2.70
2019-02-05T10:24:45.819Z,2.60
2019-02-05T10:29:57.860Z,2.60
2019-02-05T10:34:57.823Z,2.70
2019-02-05T10:40:03.514Z,2.70
2019-02-05T10:45:10.783Z,2.70
2019-02-05T10:50:17.321Z,2.80
2019-02-05T10:55:22.892Z,2.80
2019-02-05T11:00:30.383Z,2.80
2019-02-05T11:05:36.230Z,2.80
2019-02-05T11:10:42.263Z,2.90
2019-02-05T11:15:47.840Z,2.90
2019-02-05T11:20:54.036Z,2.90
2019-02-05T11:25:59.795Z,2.90
2019-02-05T11:31:05.257Z,2.90
2019-02-05T11:36:11.476Z,3.00
2019-02-05T11:41:17.402Z,3.00
2019-02-05T11:46:23.914Z,3.10
2019-02-05T11:51:29.479Z,3.10
2019-02-05T11:56:35.298Z,3.20
2019-02-05T12:01:40.995Z,3.30
2019-02-05T12:06:46.865Z,3.30
2019-02-05T12:11:52.440Z,3.40
2019-02-05T12:16:58.744Z,3.30
2019-02-05T12:22:04.614Z,3.40
2019-02-05T12:27:10.580Z,3.50
2019-02-05T12:32:16.982Z,3.50
2019-02-05T12:37:24.211Z,3.60
2019-02-05T12:42:30.714Z,3.70
2019-02-05T12:47:36.310Z,3.70
2019-02-05T12:52:41.936Z,3.80
2019-02-05T12:57:48.072Z,3.90
2019-02-05T13:02:54.674Z,3.90
2019-02-05T13:08:01.064Z,4.00
2019-02-05T13:13:08.524Z,4.20
2019-02-05T13:18:15.098Z,4.30
2019-02-05T13:23:21.074Z,4.40
2019-02-05T13:28:26.986Z,4.40
2019-02-05T13:33:32.455Z,4.30
2019-02-05T13:38:38.265Z,4.30
2019-02-05T13:43:44.146Z,4.20
2019-02-05T13:48:50.027Z,4.20
2019-02-05T13:53:55.599Z,4.10
2019-02-05T13:59:01.555Z,4.10
2019-02-05T14:04:07.109Z,4.00
2019-02-05T14:09:14.067Z,4.00
2019-02-05T14:14:19.969Z,4.00
2019-02-05T14:19:25.426Z,3.90
2019-02-05T14:24:30.946Z,3.90
2019-02-05T14:29:36.787Z,3.90
2019-02-05T14:34:42.618Z,3.90
2019-02-05T14:39:48.982Z,3.90
2019-02-05T14:44:53.632Z,3.90
2019-02-05T14:49:59.290Z,4.00
2019-02-05T14:55:04.946Z,4.40
2019-02-05T15:00:15.926Z,4.10
2019-02-05T15:05:21.447Z,4.00
2019-02-05T15:10:26.939Z,4.00
2019-02-05T15:15:33.149Z,4.00
2019-02-05T15:20:42.440Z,3.90
2019-02-05T15:25:48.061Z,3.90
2019-02-05T15:30:53.560Z,3.90
2019-02-05T15:36:01.617Z,3.80
2019-02-05T15:41:07.607Z,3.70
2019-02-05T15:46:13.811Z,3.60
2019-02-05T15:51:19.673Z,3.60
2019-02-05T15:56:25.391Z,3.50
2019-02-05T16:01:31.308Z,3.50
2019-02-05T16:06:37.487Z,3.60
2019-02-05T16:11:42.953Z,3.60
2019-02-05T16:16:48.853Z,3.70
2019-02-05T16:21:54.737Z,3.70
2019-02-05T16:27:00.551Z,3.80
2019-02-05T16:32:17.090Z,3.70
2019-02-05T16:37:12.756Z,3.70
2019-02-05T16:42:18.645Z,3.70
2019-02-05T16:47:24.110Z,3.70
2019-02-05T16:52:29.941Z,3.60
2019-02-05T16:57:35.473Z,3.60
2019-02-05T17:02:41.679Z,3.70
2019-02-05T17:07:47.889Z,3.70
2019-02-05T17:12:54.049Z,3.70
2019-02-05T17:18:00.706Z,3.70
2019-02-05T17:23:06.199Z,3.70
2019-02-05T17:28:12.079Z,3.60
2019-02-05T17:33:18.294Z,3.70
2019-02-05T17:38:25.616Z,3.70
2019-02-05T17:43:29.819Z,3.70
2019-02-05T17:48:35.639Z,3.60
2019-02-05T17:53:41.205Z,3.60
2019-02-05T17:58:47.043Z,3.60
2019-02-05T18:03:52.883Z,3.60
2019-02-05T18:08:58.442Z,3.60
2019-02-05T18:14:04.275Z,3.50
2019-02-05T18:19:09.815Z,3.60
2019-02-05T18:24:15.322Z,3.60
2019-02-05T18:29:21.131Z,3.60
2019-02-05T18:34:27.646Z,3.70
2019-02-05T18:39:33.842Z,3.70
2019-02-05T18:44:39.994Z,3.70
2019-02-05T18:49:45.771Z,3.70
2019-02-05T18:54:51.344Z,3.60
2019-02-05T18:59:57.528Z,3.60
2019-02-05T19:05:02.910Z,3.60
2019-02-05T19:10:09.276Z,3.50
2019-02-05T19:15:18.859Z,3.60
2019-02-05T19:20:27.021Z,3.50
2019-02-05T19:26:08.817Z,3.50
2019-02-05T19:31:24.851Z,3.40
2019-02-05T19:36:30.329Z,3.40
2019-02-05T19:41:36.319Z,3.40
2019-02-05T19:47:01.514Z,3.30
2019-02-05T19:52:07.710Z,3.30
2019-02-05T19:57:13.875Z,3.30
2019-02-05T20:02:20.205Z,3.30
2019-02-05T20:07:26.002Z,3.30
2019-02-05T20:12:32.213Z,3.20
2019-02-05T20:17:38.412Z,3.20
2019-02-05T20:22:44.610Z,3.20
2019-02-05T20:27:50.271Z,3.20
2019-02-05T20:32:56.504Z,3.70
2019-02-05T20:38:02.031Z,3.30
2019-02-05T20:43:07.564Z,3.20
2019-02-05T20:48:13.014Z,3.10
2019-02-05T20:53:18.822Z,3.10
2019-02-05T20:58:24.776Z,3.00
2019-02-05T21:03:30.551Z,3.00
2019-02-05T21:08:36.003Z,3.00
2019-02-05T21:13:41.441Z,3.00
2019-02-05T21:18:47.224Z,3.00
2019-02-05T21:23:52.850Z,3.00
2019-02-05T21:28:58.660Z,3.00
2019-02-05T21:34:14.843Z,3.00
2019-02-05T21:39:11.725Z,3.00
2019-02-05T21:44:17.560Z,3.00
2019-02-05T21:49:23.040Z,3.00
2019-02-05T21:54:29.219Z,3.00
2019-02-05T21:59:34.675Z,3.00
2019-02-05T22:04:40.870Z,3.00
2019-02-05T22:09:47.033Z,3.00
2019-02-05T22:14:53.092Z,3.00
2019-02-05T22:19:58.741Z,3.00
2019-02-05T22:25:07.830Z,3.00
2019-02-05T22:30:19.059Z,3.00
2019-02-05T22:35:24.957Z,3.30
2019-02-05T22:40:31.025Z,3.60
2019-02-05T22:45:37.012Z,3.10
2019-02-05T22:50:42.878Z,3.00
2019-02-05T22:55:48.874Z,3.10
2019-02-05T23:01:11.898Z,3.00
2019-02-05T23:06:33.286Z,3.00
2019-02-05T23:12:00.519Z,3.00
2019-02-05T23:17:06.080Z,3.00
2019-02-05T23:22:11.614Z,2.90
2019-02-05T23:27:17.480Z,2.90
2019-02-05T23:32:23.328Z,3.00
2019-02-05T23:37:28.914Z,2.90
2019-02-05T23:42:35.046Z,2.90
2019-02-05T23:47:40.935Z,2.90
2019-02-05T23:52:46.446Z,2.90
2019-02-05T23:57:51.931Z,2.90
